Terminal Aerodrome Forecast
Issued by NWS

Home | Current Version | Previous Version | Text Only | Print | Product List | Glossary On
Versions: 1 2 3 4 5 6 7 8 9 10 11 12 13 14
000
FTUS43 KICT 251745
TAFSLN
TAF
KSLN 251745Z 2518/2618 18022G32KT P6SM SCT250
     FM260000 18013KT P6SM SCT250
     FM260500 20008KT P6SM SCT250
     FM260900 34013G18KT P6SM SCT009 SCT015
     FM261100 35014G19KT P6SM SCT009 BKN015=

USA.gov is the U.S. government's official web portal to all federal, state and local government web resources and services.